sensor_id;sensor_type;location;lat;lon;timestamp;pressure;altitude;pressure_sealevel;temperature;humidity
65173;BME280;51758;52.218;5.172;2022-07-06T00:01:04;102506.91;;;13.90;75.37
65173;BME280;51758;52.218;5.172;2022-07-06T00:03:31;102509.81;;;13.79;76.74
65173;BME280;51758;52.218;5.172;2022-07-06T00:05:59;102510.78;;;13.78;76.53
65173;BME280;51758;52.218;5.172;2022-07-06T00:08:27;102498.16;;;13.82;76.60
65173;BME280;51758;52.218;5.172;2022-07-06T00:10:55;102512.16;;;13.90;76.10
65173;BME280;51758;52.218;5.172;2022-07-06T00:13:22;102503.09;;;13.85;76.01
65173;BME280;51758;52.218;5.172;2022-07-06T00:15:50;102485.38;;;13.79;76.08
65173;BME280;51758;52.218;5.172;2022-07-06T00:18:19;102504.56;;;13.79;76.50
65173;BME280;51758;52.218;5.172;2022-07-06T00:20:47;102503.91;;;13.77;76.69
65173;BME280;51758;52.218;5.172;2022-07-06T00:23:15;102507.34;;;13.78;76.88
65173;BME280;51758;52.218;5.172;2022-07-06T00:25:43;102506.84;;;13.74;77.39
65173;BME280;51758;52.218;5.172;2022-07-06T00:28:11;102513.53;;;13.69;77.06
65173;BME280;51758;52.218;5.172;2022-07-06T00:30:39;102507.78;;;13.65;77.13
65173;BME280;51758;52.218;5.172;2022-07-06T00:33:07;102505.84;;;13.67;77.38
65173;BME280;51758;52.218;5.172;2022-07-06T00:35:36;102503.06;;;13.43;78.12
65173;BME280;51758;52.218;5.172;2022-07-06T00:38:04;102498.56;;;13.53;77.67
65173;BME280;51758;52.218;5.172;2022-07-06T00:40:31;102498.41;;;13.54;77.39
65173;BME280;51758;52.218;5.172;2022-07-06T00:42:59;102499.84;;;13.57;77.40
65173;BME280;51758;52.218;5.172;2022-07-06T00:45:26;102497.91;;;13.59;77.11
65173;BME280;51758;52.218;5.172;2022-07-06T00:47:54;102500.38;;;13.60;76.91
65173;BME280;51758;52.218;5.172;2022-07-06T00:50:22;102503.16;;;13.59;76.53
65173;BME280;51758;52.218;5.172;2022-07-06T00:52:53;102500.69;;;13.57;76.16
65173;BME280;51758;52.218;5.172;2022-07-06T00:55:23;102505.09;;;13.57;76.00
65173;BME280;51758;52.218;5.172;2022-07-06T00:57:52;102509.88;;;13.53;75.88
65173;BME280;51758;52.218;5.172;2022-07-06T01:00:23;102497.22;;;13.49;76.07
65173;BME280;51758;52.218;5.172;2022-07-06T01:02:52;102503.75;;;13.45;76.12
65173;BME280;51758;52.218;5.172;2022-07-06T01:05:20;102504.72;;;13.44;76.39
65173;BME280;51758;52.218;5.172;2022-07-06T01:07:51;102510.63;;;13.46;75.95
65173;BME280;51758;52.218;5.172;2022-07-06T01:10:20;102507.34;;;13.44;76.02
65173;BME280;51758;52.218;5.172;2022-07-06T01:12:48;102507.00;;;13.39;76.47
65173;BME280;51758;52.218;5.172;2022-07-06T01:15:17;102511.56;;;13.37;76.32
65173;BME280;51758;52.218;5.172;2022-07-06T01:17:46;102503.84;;;13.35;76.34
65173;BME280;51758;52.218;5.172;2022-07-06T01:20:16;102510.91;;;13.35;76.31
65173;BME280;51758;52.218;5.172;2022-07-06T01:22:44;102508.44;;;13.33;76.47
65173;BME280;51758;52.218;5.172;2022-07-06T01:25:12;102509.41;;;13.32;76.24
65173;BME280;51758;52.218;5.172;2022-07-06T01:27:41;102503.69;;;13.29;76.35
65173;BME280;51758;52.218;5.172;2022-07-06T01:30:09;102498.88;;;13.24;76.42
65173;BME280;51758;52.218;5.172;2022-07-06T01:32:38;102492.97;;;13.22;77.03
65173;BME280;51758;52.218;5.172;2022-07-06T01:35:08;102491.47;;;13.19;76.93
65173;BME280;51758;52.218;5.172;2022-07-06T01:37:37;102496.72;;;13.19;76.89
65173;BME280;51758;52.218;5.172;2022-07-06T01:40:07;102492.28;;;13.20;77.00
65173;BME280;51758;52.218;5.172;2022-07-06T01:42:35;102492.81;;;13.23;76.77
65173;BME280;51758;52.218;5.172;2022-07-06T01:45:04;102490.03;;;13.25;77.02
65173;BME280;51758;52.218;5.172;2022-07-06T01:47:32;102494.81;;;13.30;77.77
65173;BME280;51758;52.218;5.172;2022-07-06T01:50:00;102490.44;;;13.38;77.76
65173;BME280;51758;52.218;5.172;2022-07-06T01:52:28;102488.50;;;13.40;78.76
65173;BME280;51758;52.218;5.172;2022-07-06T01:54:57;102495.03;;;13.44;79.31
65173;BME280;51758;52.218;5.172;2022-07-06T01:57:24;102493.75;;;13.48;79.17
65173;BME280;51758;52.218;5.172;2022-07-06T01:59:52;102494.13;;;13.53;79.30
65173;BME280;51758;52.218;5.172;2022-07-06T02:02:20;102488.75;;;13.63;78.95
65173;BME280;51758;52.218;5.172;2022-07-06T02:04:48;102490.41;;;13.72;78.78
65173;BME280;51758;52.218;5.172;2022-07-06T02:07:15;102487.47;;;13.75;78.73
65173;BME280;51758;52.218;5.172;2022-07-06T02:09:43;102493.03;;;13.72;79.59
65173;BME280;51758;52.218;5.172;2022-07-06T02:12:12;102489.44;;;13.73;80.13
65173;BME280;51758;52.218;5.172;2022-07-06T02:14:39;102436.50;;;13.44;80.18
65173;BME280;51758;52.218;5.172;2022-07-06T02:17:07;102487.47;;;13.75;81.11
65173;BME280;51758;52.218;5.172;2022-07-06T02:19:35;102492.41;;;13.78;80.42
65173;BME280;51758;52.218;5.172;2022-07-06T02:22:03;102492.13;;;13.89;80.06
65173;BME280;51758;52.218;5.172;2022-07-06T02:24:30;102491.31;;;13.89;80.35
65173;BME280;51758;52.218;5.172;2022-07-06T02:26:58;102495.25;;;13.93;80.07
65173;BME280;51758;52.218;5.172;2022-07-06T02:29:27;102486.25;;;14.04;79.34
65173;BME280;51758;52.218;5.172;2022-07-06T02:31:54;102479.53;;;14.09;78.97
65173;BME280;51758;52.218;5.172;2022-07-06T02:34:22;102478.22;;;14.13;78.43
65173;BME280;51758;52.218;5.172;2022-07-06T02:36:49;102485.13;;;14.14;78.48
65173;BME280;51758;52.218;5.172;2022-07-06T02:39:17;102488.06;;;14.19;78.01
65173;BME280;51758;52.218;5.172;2022-07-06T02:41:44;102490.53;;;14.21;77.64
65173;BME280;51758;52.218;5.172;2022-07-06T02:44:12;102484.81;;;14.25;77.80
65173;BME280;51758;52.218;5.172;2022-07-06T02:46:41;102500.72;;;14.32;77.68
65173;BME280;51758;52.218;5.172;2022-07-06T02:49:09;102491.41;;;14.29;77.94
65173;BME280;51758;52.218;5.172;2022-07-06T02:51:36;102497.13;;;14.33;78.04
65173;BME280;51758;52.218;5.172;2022-07-06T02:54:04;102497.78;;;14.35;78.24
65173;BME280;51758;52.218;5.172;2022-07-06T02:56:31;102479.56;;;14.25;77.78
65173;BME280;51758;52.218;5.172;2022-07-06T02:58:59;102492.53;;;14.35;78.82
65173;BME280;51758;52.218;5.172;2022-07-06T03:01:27;102496.16;;;14.34;78.66
65173;BME280;51758;52.218;5.172;2022-07-06T03:03:56;102489.59;;;14.38;78.52
65173;BME280;51758;52.218;5.172;2022-07-06T03:06:23;102486.47;;;14.34;78.32
65173;BME280;51758;52.218;5.172;2022-07-06T03:08:51;102498.28;;;14.30;78.85
65173;BME280;51758;52.218;5.172;2022-07-06T03:11:18;102489.09;;;14.34;78.58
65173;BME280;51758;52.218;5.172;2022-07-06T03:13:46;102495.31;;;14.25;78.53
65173;BME280;51758;52.218;5.172;2022-07-06T03:16:13;102503.88;;;14.27;78.43
65173;BME280;51758;52.218;5.172;2022-07-06T03:18:41;102491.88;;;14.17;79.28
65173;BME280;51758;52.218;5.172;2022-07-06T03:21:10;102515.47;;;14.09;79.76
65173;BME280;51758;52.218;5.172;2022-07-06T03:23:38;102508.09;;;14.04;79.99
65173;BME280;51758;52.218;5.172;2022-07-06T03:26:05;102500.69;;;13.99;80.23
65173;BME280;51758;52.218;5.172;2022-07-06T03:28:33;102509.84;;;13.95;80.92
65173;BME280;51758;52.218;5.172;2022-07-06T03:31:00;102514.41;;;13.85;80.91
65173;BME280;51758;52.218;5.172;2022-07-06T03:33:28;102517.03;;;13.85;81.18
65173;BME280;51758;52.218;5.172;2022-07-06T03:35:55;102515.31;;;14.02;80.72
65173;BME280;51758;52.218;5.172;2022-07-06T03:38:25;102503.16;;;14.09;79.95
65173;BME280;51758;52.218;5.172;2022-07-06T03:40:52;102490.84;;;14.10;79.86
65173;BME280;51758;52.218;5.172;2022-07-06T03:43:20;102489.88;;;14.03;79.88
65173;BME280;51758;52.218;5.172;2022-07-06T03:45:47;102486.41;;;14.10;79.38
65173;BME280;51758;52.218;5.172;2022-07-06T03:48:15;102486.56;;;14.01;80.05
65173;BME280;51758;52.218;5.172;2022-07-06T03:50:43;102487.53;;;13.91;80.88
65173;BME280;51758;52.218;5.172;2022-07-06T03:53:10;102495.44;;;13.99;81.42
65173;BME280;51758;52.218;5.172;2022-07-06T03:55:39;102496.56;;;13.97;81.62
65173;BME280;51758;52.218;5.172;2022-07-06T03:58:07;102506.25;;;13.96;82.29
65173;BME280;51758;52.218;5.172;2022-07-06T04:00:34;102508.03;;;13.96;82.22
65173;BME280;51758;52.218;5.172;2022-07-06T04:03:02;102507.06;;;13.89;82.42
65173;BME280;51758;52.218;5.172;2022-07-06T04:05:30;102483.28;;;13.98;82.30
65173;BME280;51758;52.218;5.172;2022-07-06T04:07:57;102491.16;;;13.98;82.07
65173;BME280;51758;52.218;5.172;2022-07-06T04:10:25;102487.25;;;14.03;81.97
65173;BME280;51758;52.218;5.172;2022-07-06T04:12:54;102482.00;;;14.11;82.32
65173;BME280;51758;52.218;5.172;2022-07-06T04:15:22;102494.97;;;14.12;81.97
65173;BME280;51758;52.218;5.172;2022-07-06T04:17:49;102494.63;;;14.07;82.19
65173;BME280;51758;52.218;5.172;2022-07-06T04:20:21;102504.59;;;13.95;82.47
65173;BME280;51758;52.218;5.172;2022-07-06T04:22:49;102509.91;;;14.04;82.33
65173;BME280;51758;52.218;5.172;2022-07-06T04:25:17;102504.50;;;14.13;82.39
65173;BME280;51758;52.218;5.172;2022-07-06T04:27:45;102499.72;;;14.09;82.25
65173;BME280;51758;52.218;5.172;2022-07-06T04:30:14;102515.16;;;14.04;82.36
65173;BME280;51758;52.218;5.172;2022-07-06T04:32:42;102501.19;;;14.11;82.25
65173;BME280;51758;52.218;5.172;2022-07-06T04:35:10;102503.66;;;14.05;82.66
65173;BME280;51758;52.218;5.172;2022-07-06T04:37:38;102499.88;;;14.07;82.70
65173;BME280;51758;52.218;5.172;2022-07-06T04:40:07;102493.63;;;14.08;82.42
65173;BME280;51758;52.218;5.172;2022-07-06T04:42:41;102500.53;;;14.09;82.77
65173;BME280;51758;52.218;5.172;2022-07-06T04:45:09;102498.72;;;14.10;82.85
65173;BME280;51758;52.218;5.172;2022-07-06T04:47:38;102507.59;;;14.09;82.84
65173;BME280;51758;52.218;5.172;2022-07-06T04:50:07;102499.41;;;14.12;82.83
65173;BME280;51758;52.218;5.172;2022-07-06T04:52:34;102504.34;;;14.23;82.45
65173;BME280;51758;52.218;5.172;2022-07-06T04:55:02;102500.38;;;14.11;83.26
65173;BME280;51758;52.218;5.172;2022-07-06T04:57:31;102493.31;;;14.19;82.90
65173;BME280;51758;52.218;5.172;2022-07-06T04:59:58;102502.38;;;14.17;83.56
65173;BME280;51758;52.218;5.172;2022-07-06T05:02:26;102501.88;;;14.21;83.50
65173;BME280;51758;52.218;5.172;2022-07-06T05:04:55;102500.88;;;14.22;83.57
65173;BME280;51758;52.218;5.172;2022-07-06T05:07:23;102510.31;;;14.41;83.30
65173;BME280;51758;52.218;5.172;2022-07-06T05:09:54;102509.66;;;14.47;83.23
65173;BME280;51758;52.218;5.172;2022-07-06T05:12:22;102511.25;;;14.24;83.79
65173;BME280;51758;52.218;5.172;2022-07-06T05:14:49;102510.16;;;14.51;83.64
65173;BME280;51758;52.218;5.172;2022-07-06T05:17:17;102507.03;;;14.72;83.43
65173;BME280;51758;52.218;5.172;2022-07-06T05:19:45;102513.63;;;14.67;83.10
65173;BME280;51758;52.218;5.172;2022-07-06T05:22:14;102506.72;;;14.66;83.19
65173;BME280;51758;52.218;5.172;2022-07-06T05:24:41;102514.75;;;14.73;83.17
65173;BME280;51758;52.218;5.172;2022-07-06T05:27:09;102496.69;;;14.86;82.74
65173;BME280;51758;52.218;5.172;2022-07-06T05:29:36;102509.84;;;14.94;82.09
65173;BME280;51758;52.218;5.172;2022-07-06T05:32:04;102525.41;;;15.12;81.55
65173;BME280;51758;52.218;5.172;2022-07-06T05:34:32;102513.91;;;15.13;81.69
65173;BME280;51758;52.218;5.172;2022-07-06T05:37:00;102512.09;;;15.14;81.05
65173;BME280;51758;52.218;5.172;2022-07-06T05:39:29;102522.44;;;15.23;81.06
65173;BME280;51758;52.218;5.172;2022-07-06T05:41:56;102518.16;;;15.30;80.67
65173;BME280;51758;52.218;5.172;2022-07-06T05:44:24;102517.47;;;15.36;79.94
65173;BME280;51758;52.218;5.172;2022-07-06T05:46:51;102507.97;;;15.27;79.54
65173;BME280;51758;52.218;5.172;2022-07-06T05:49:39;102523.34;;;15.47;79.13
65173;BME280;51758;52.218;5.172;2022-07-06T05:52:24;102514.84;;;15.36;78.84
65173;BME280;51758;52.218;5.172;2022-07-06T05:54:53;102516.03;;;15.26;78.63
65173;BME280;51758;52.218;5.172;2022-07-06T05:57:21;102514.13;;;15.59;77.60
65173;BME280;51758;52.218;5.172;2022-07-06T05:59:48;102500.16;;;15.50;77.29
65173;BME280;51758;52.218;5.172;2022-07-06T06:02:16;102507.25;;;15.58;77.04
65173;BME280;51758;52.218;5.172;2022-07-06T06:04:44;102514.47;;;15.48;76.70
65173;BME280;51758;52.218;5.172;2022-07-06T06:07:11;102522.03;;;15.59;77.06
65173;BME280;51758;52.218;5.172;2022-07-06T06:09:39;102517.78;;;15.58;76.42
65173;BME280;51758;52.218;5.172;2022-07-06T06:12:08;102519.22;;;15.60;76.71
65173;BME280;51758;52.218;5.172;2022-07-06T06:14:36;102520.59;;;15.40;77.42
65173;BME280;51758;52.218;5.172;2022-07-06T06:17:04;102524.00;;;15.65;77.33
65173;BME280;51758;52.218;5.172;2022-07-06T06:19:35;102520.41;;;15.58;77.42
65173;BME280;51758;52.218;5.172;2022-07-06T06:22:03;102520.66;;;15.71;77.24
65173;BME280;51758;52.218;5.172;2022-07-06T06:24:31;102526.13;;;16.00;76.55
65173;BME280;51758;52.218;5.172;2022-07-06T06:26:59;102514.16;;;15.90;75.90
65173;BME280;51758;52.218;5.172;2022-07-06T06:29:28;102524.88;;;16.19;75.64
65173;BME280;51758;52.218;5.172;2022-07-06T06:31:55;102515.84;;;16.36;74.62
65173;BME280;51758;52.218;5.172;2022-07-06T06:34:23;102524.09;;;16.64;74.14
65173;BME280;51758;52.218;5.172;2022-07-06T06:36:51;102517.13;;;16.71;72.20
65173;BME280;51758;52.218;5.172;2022-07-06T06:39:18;102521.59;;;16.71;72.94
65173;BME280;51758;52.218;5.172;2022-07-06T06:41:46;102525.84;;;16.72;72.02
65173;BME280;51758;52.218;5.172;2022-07-06T06:44:14;102524.59;;;16.60;72.19
65173;BME280;51758;52.218;5.172;2022-07-06T06:46:43;102528.84;;;17.36;72.37
65173;BME280;51758;52.218;5.172;2022-07-06T06:49:11;102521.44;;;17.02;69.70
65173;BME280;51758;52.218;5.172;2022-07-06T06:51:39;102525.66;;;17.40;69.15
65173;BME280;51758;52.218;5.172;2022-07-06T06:54:07;102513.91;;;17.87;67.58
65173;BME280;51758;52.218;5.172;2022-07-06T06:56:35;102519.03;;;17.59;67.15
65173;BME280;51758;52.218;5.172;2022-07-06T06:59:02;102520.94;;;17.50;66.68
65173;BME280;51758;52.218;5.172;2022-07-06T07:01:47;102521.56;;;17.38;66.92
65173;BME280;51758;52.218;5.172;2022-07-06T07:04:21;102523.59;;;17.21;65.69
65173;BME280;51758;52.218;5.172;2022-07-06T07:06:49;102519.31;;;17.35;64.75
65173;BME280;51758;52.218;5.172;2022-07-06T07:09:17;102517.91;;;17.24;63.79
65173;BME280;51758;52.218;5.172;2022-07-06T07:11:44;102523.97;;;17.33;62.26
65173;BME280;51758;52.218;5.172;2022-07-06T07:14:12;102523.13;;;17.32;63.71
65173;BME280;51758;52.218;5.172;2022-07-06T07:16:39;102528.41;;;17.32;63.33
65173;BME280;51758;52.218;5.172;2022-07-06T07:19:08;102522.38;;;17.24;64.47
65173;BME280;51758;52.218;5.172;2022-07-06T07:21:36;102531.13;;;17.53;64.56
65173;BME280;51758;52.218;5.172;2022-07-06T07:24:04;102525.91;;;18.04;64.41
65173;BME280;51758;52.218;5.172;2022-07-06T07:26:36;102524.28;;;18.24;61.29
65173;BME280;51758;52.218;5.172;2022-07-06T07:29:03;102514.63;;;18.74;60.04
65173;BME280;51758;52.218;5.172;2022-07-06T07:31:31;102513.63;;;19.38;60.63
65173;BME280;51758;52.218;5.172;2022-07-06T07:33:59;102510.88;;;19.59;58.64
65173;BME280;51758;52.218;5.172;2022-07-06T07:36:28;102515.44;;;19.37;56.86
65173;BME280;51758;52.218;5.172;2022-07-06T07:38:55;102518.50;;;19.41;57.83
65173;BME280;51758;52.218;5.172;2022-07-06T07:41:24;102511.16;;;19.36;56.57
65173;BME280;51758;52.218;5.172;2022-07-06T07:43:51;102520.94;;;18.80;57.22
65173;BME280;51758;52.218;5.172;2022-07-06T07:46:19;102520.31;;;18.78;58.69
65173;BME280;51758;52.218;5.172;2022-07-06T07:48:47;102514.50;;;19.17;59.65
65173;BME280;51758;52.218;5.172;2022-07-06T07:51:14;102508.91;;;19.33;58.79
65173;BME280;51758;52.218;5.172;2022-07-06T07:53:43;102519.31;;;19.07;57.49
65173;BME280;51758;52.218;5.172;2022-07-06T07:56:11;102523.44;;;18.60;57.26
65173;BME280;51758;52.218;5.172;2022-07-06T07:58:39;102519.34;;;19.13;56.80
65173;BME280;51758;52.218;5.172;2022-07-06T08:01:06;102514.00;;;19.35;55.00
65173;BME280;51758;52.218;5.172;2022-07-06T08:03:34;102510.06;;;19.24;54.38
65173;BME280;51758;52.218;5.172;2022-07-06T08:06:02;102507.00;;;19.20;52.66
65173;BME280;51758;52.218;5.172;2022-07-06T08:08:29;102517.50;;;19.42;51.25
65173;BME280;51758;52.218;5.172;2022-07-06T08:10:58;102507.28;;;19.39;54.50
65173;BME280;51758;52.218;5.172;2022-07-06T08:13:44;102500.97;;;19.40;53.79
65173;BME280;51758;52.218;5.172;2022-07-06T08:16:12;102512.06;;;19.50;55.17
65173;BME280;51758;52.218;5.172;2022-07-06T08:18:40;102507.47;;;19.72;52.83
65173;BME280;51758;52.218;5.172;2022-07-06T08:21:08;102508.63;;;20.10;55.18
65173;BME280;51758;52.218;5.172;2022-07-06T08:23:54;102511.16;;;20.45;53.64
65173;BME280;51758;52.218;5.172;2022-07-06T08:26:23;102502.22;;;19.91;49.99
65173;BME280;51758;52.218;5.172;2022-07-06T08:28:51;102479.59;;;19.82;50.87
65173;BME280;51758;52.218;5.172;2022-07-06T08:31:19;102498.84;;;20.30;52.05
65173;BME280;51758;52.218;5.172;2022-07-06T08:34:07;102504.28;;;20.02;49.29
65173;BME280;51758;52.218;5.172;2022-07-06T08:36:34;102502.72;;;20.21;50.09
65173;BME280;51758;52.218;5.172;2022-07-06T08:39:02;102501.31;;;20.91;52.44
65173;BME280;51758;52.218;5.172;2022-07-06T08:41:31;102496.78;;;21.38;47.11
65173;BME280;51758;52.218;5.172;2022-07-06T08:43:59;102503.94;;;21.31;45.89
65173;BME280;51758;52.218;5.172;2022-07-06T08:46:33;102492.13;;;21.78;47.12
65173;BME280;51758;52.218;5.172;2022-07-06T08:49:03;102485.03;;;21.59;44.88
65173;BME280;51758;52.218;5.172;2022-07-06T08:51:31;102486.47;;;20.64;47.84
65173;BME280;51758;52.218;5.172;2022-07-06T08:53:59;102494.19;;;20.65;47.29
65173;BME280;51758;52.218;5.172;2022-07-06T08:56:27;102483.53;;;20.19;46.81
65173;BME280;51758;52.218;5.172;2022-07-06T08:58:57;102492.59;;;20.64;47.57
65173;BME280;51758;52.218;5.172;2022-07-06T09:01:25;102498.28;;;20.88;50.58
65173;BME280;51758;52.218;5.172;2022-07-06T09:03:54;102490.94;;;20.70;46.10
65173;BME280;51758;52.218;5.172;2022-07-06T09:06:24;102493.97;;;21.00;45.31
65173;BME280;51758;52.218;5.172;2022-07-06T09:08:53;102489.63;;;21.32;43.51
65173;BME280;51758;52.218;5.172;2022-07-06T09:11:22;102495.19;;;21.68;44.63
65173;BME280;51758;52.218;5.172;2022-07-06T09:13:51;102494.56;;;21.08;44.26
65173;BME280;51758;52.218;5.172;2022-07-06T09:16:26;102496.44;;;21.01;43.95
65173;BME280;51758;52.218;5.172;2022-07-06T09:19:05;102490.75;;;20.71;44.31
65173;BME280;51758;52.218;5.172;2022-07-06T09:21:34;102493.31;;;21.31;46.30
65173;BME280;51758;52.218;5.172;2022-07-06T09:24:06;102504.91;;;21.43;44.91
65173;BME280;51758;52.218;5.172;2022-07-06T09:26:34;102491.13;;;21.01;44.72
65173;BME280;51758;52.218;5.172;2022-07-06T09:29:02;102497.03;;;20.24;46.78
65173;BME280;51758;52.218;5.172;2022-07-06T09:31:31;102499.25;;;21.13;47.35
65173;BME280;51758;52.218;5.172;2022-07-06T09:34:01;102494.72;;;21.40;45.67
65173;BME280;51758;52.218;5.172;2022-07-06T09:36:42;102497.25;;;21.66;46.24
65173;BME280;51758;52.218;5.172;2022-07-06T09:39:21;102510.28;;;21.03;45.37
65173;BME280;51758;52.218;5.172;2022-07-06T09:41:51;102511.28;;;21.16;46.88
65173;BME280;51758;52.218;5.172;2022-07-06T09:44:23;102510.59;;;21.60;48.72
65173;BME280;51758;52.218;5.172;2022-07-06T09:46:55;102511.28;;;21.87;48.64
65173;BME280;51758;52.218;5.172;2022-07-06T09:49:23;102513.03;;;22.06;47.64
65173;BME280;51758;52.218;5.172;2022-07-06T09:51:54;102504.53;;;22.22;48.23
65173;BME280;51758;52.218;5.172;2022-07-06T09:54:23;102517.44;;;22.19;48.47
65173;BME280;51758;52.218;5.172;2022-07-06T09:56:52;102519.25;;;21.87;46.55
65173;BME280;51758;52.218;5.172;2022-07-06T09:59:21;102498.34;;;22.03;48.22
65173;BME280;51758;52.218;5.172;2022-07-06T10:01:51;102512.91;;;22.26;49.10
65173;BME280;51758;52.218;5.172;2022-07-06T10:04:23;102492.50;;;22.69;48.24
65173;BME280;51758;52.218;5.172;2022-07-06T10:06:52;102493.34;;;23.13;46.55
65173;BME280;51758;52.218;5.172;2022-07-06T10:09:21;102494.72;;;22.97;41.80
65173;BME280;51758;52.218;5.172;2022-07-06T10:11:50;102499.34;;;21.58;43.38
65173;BME280;51758;52.218;5.172;2022-07-06T10:14:21;102502.84;;;21.52;44.16
65173;BME280;51758;52.218;5.172;2022-07-06T10:16:49;102503.78;;;21.70;44.37
65173;BME280;51758;52.218;5.172;2022-07-06T10:19:19;102507.44;;;21.25;43.16
65173;BME280;51758;52.218;5.172;2022-07-06T10:21:49;102503.94;;;21.82;46.08
65173;BME280;51758;52.218;5.172;2022-07-06T10:24:19;102502.09;;;21.38;42.34
65173;BME280;51758;52.218;5.172;2022-07-06T10:26:47;102501.88;;;21.33;43.66
65173;BME280;51758;52.218;5.172;2022-07-06T10:29:15;102506.91;;;21.54;42.79
65173;BME280;51758;52.218;5.172;2022-07-06T10:31:44;102499.50;;;21.69;42.77
65173;BME280;51758;52.218;5.172;2022-07-06T10:34:14;102495.78;;;21.06;42.10
65173;BME280;51758;52.218;5.172;2022-07-06T10:36:43;102482.13;;;20.96;44.66
65173;BME280;51758;52.218;5.172;2022-07-06T10:39:12;102496.53;;;21.91;44.99
65173;BME280;51758;52.218;5.172;2022-07-06T10:41:57;102481.75;;;22.58;44.17
65173;BME280;51758;52.218;5.172;2022-07-06T10:44:26;102490.94;;;22.86;43.00
65173;BME280;51758;52.218;5.172;2022-07-06T10:46:56;102485.72;;;23.53;39.44
65173;BME280;51758;52.218;5.172;2022-07-06T10:49:25;102470.28;;;23.73;39.72
65173;BME280;51758;52.218;5.172;2022-07-06T10:52:16;102465.81;;;23.01;40.43
65173;BME280;51758;52.218;5.172;2022-07-06T10:54:46;102485.13;;;23.51;39.37
65173;BME280;51758;52.218;5.172;2022-07-06T10:57:13;102475.66;;;23.37;39.58
65173;BME280;51758;52.218;5.172;2022-07-06T11:00:00;102472.97;;;23.37;40.56
65173;BME280;51758;52.218;5.172;2022-07-06T11:02:37;102463.16;;;23.55;42.06
65173;BME280;51758;52.218;5.172;2022-07-06T11:05:10;102473.84;;;23.97;36.94
65173;BME280;51758;52.218;5.172;2022-07-06T11:07:48;102466.66;;;22.51;39.08
65173;BME280;51758;52.218;5.172;2022-07-06T11:10:22;102463.66;;;23.28;38.12
65173;BME280;51758;52.218;5.172;2022-07-06T11:12:58;102458.28;;;23.16;38.31
65173;BME280;51758;52.218;5.172;2022-07-06T11:15:47;102472.69;;;23.27;38.11
65173;BME280;51758;52.218;5.172;2022-07-06T11:18:18;102469.25;;;22.58;38.91
65173;BME280;51758;52.218;5.172;2022-07-06T11:21:14;102458.44;;;24.11;40.71
65173;BME280;51758;52.218;5.172;2022-07-06T11:23:42;102454.47;;;24.02;36.74
65173;BME280;51758;52.218;5.172;2022-07-06T11:26:11;102446.28;;;23.25;37.40
65173;BME280;51758;52.218;5.172;2022-07-06T11:28:39;102446.88;;;23.09;42.83
65173;BME280;51758;52.218;5.172;2022-07-06T11:31:07;102445.91;;;24.11;41.56
65173;BME280;51758;52.218;5.172;2022-07-06T11:33:35;102428.00;;;25.85;41.76
65173;BME280;51758;52.218;5.172;2022-07-06T11:36:13;102429.63;;;25.69;32.80
65173;BME280;51758;52.218;5.172;2022-07-06T11:38:41;102429.97;;;24.70;34.06
65173;BME280;51758;52.218;5.172;2022-07-06T11:41:09;102433.22;;;24.37;35.80
65173;BME280;51758;52.218;5.172;2022-07-06T11:43:40;102419.81;;;25.75;39.79
65173;BME280;51758;52.218;5.172;2022-07-06T11:46:20;102428.78;;;25.41;33.15
65173;BME280;51758;52.218;5.172;2022-07-06T11:48:48;102423.44;;;24.89;35.47
65173;BME280;51758;52.218;5.172;2022-07-06T11:51:16;102428.28;;;22.84;38.21
65173;BME280;51758;52.218;5.172;2022-07-06T11:53:45;102419.66;;;23.97;37.21
65173;BME280;51758;52.218;5.172;2022-07-06T11:56:20;102416.00;;;25.43;37.99
65173;BME280;51758;52.218;5.172;2022-07-06T11:58:54;102421.63;;;23.89;35.97
65173;BME280;51758;52.218;5.172;2022-07-06T12:01:22;102429.28;;;23.98;36.78
65173;BME280;51758;52.218;5.172;2022-07-06T12:03:51;102416.97;;;24.38;42.52
65173;BME280;51758;52.218;5.172;2022-07-06T12:06:20;102422.25;;;25.77;35.74
65173;BME280;51758;52.218;5.172;2022-07-06T12:08:50;102434.00;;;24.95;35.00
65173;BME280;51758;52.218;5.172;2022-07-06T12:11:20;102432.63;;;25.05;36.75
65173;BME280;51758;52.218;5.172;2022-07-06T12:13:49;102419.75;;;26.20;32.81
65173;BME280;51758;52.218;5.172;2022-07-06T12:16:18;102422.97;;;25.89;32.60
65173;BME280;51758;52.218;5.172;2022-07-06T12:18:47;102407.25;;;25.92;32.80
65173;BME280;51758;52.218;5.172;2022-07-06T12:21:18;102422.31;;;24.50;32.93
65173;BME280;51758;52.218;5.172;2022-07-06T12:23:49;102396.31;;;24.69;34.58
65173;BME280;51758;52.218;5.172;2022-07-06T12:26:18;102401.41;;;24.82;33.59
65173;BME280;51758;52.218;5.172;2022-07-06T12:28:46;102410.47;;;24.34;34.86
65173;BME280;51758;52.218;5.172;2022-07-06T12:31:34;102410.44;;;26.06;35.17
65173;BME280;51758;52.218;5.172;2022-07-06T12:34:02;102388.66;;;26.74;32.27
65173;BME280;51758;52.218;5.172;2022-07-06T12:36:31;102403.47;;;26.99;34.38
65173;BME280;51758;52.218;5.172;2022-07-06T12:38:59;102402.41;;;27.75;30.87
65173;BME280;51758;52.218;5.172;2022-07-06T12:41:30;102406.41;;;27.19;30.52
65173;BME280;51758;52.218;5.172;2022-07-06T12:44:01;102406.13;;;26.38;32.35
65173;BME280;51758;52.218;5.172;2022-07-06T12:46:31;102405.66;;;27.02;34.27
65173;BME280;51758;52.218;5.172;2022-07-06T12:49:02;102405.28;;;25.43;36.64
65173;BME280;51758;52.218;5.172;2022-07-06T12:51:47;102400.56;;;26.62;35.87
65173;BME280;51758;52.218;5.172;2022-07-06T12:54:16;102399.19;;;27.25;33.35
65173;BME280;51758;52.218;5.172;2022-07-06T12:57:05;102392.13;;;27.99;34.19
65173;BME280;51758;52.218;5.172;2022-07-06T12:59:35;102389.28;;;28.48;31.81
65173;BME280;51758;52.218;5.172;2022-07-06T13:02:05;102373.06;;;26.50;31.61